Time;durP1;ratioP1;P1;durP2;ratioP2;P2;SDS_P1;SDS_P2;PMS_P1;PMS_P2;Temp;Humidity;BMP_temperature;BMP_pressure;BME280_temperature;BME280_humidity;BME280_pressure;Samples;Min_cycle;Max_cycle;Signal;HPM_P1;HPM_P2
2022/11/04 00:04:59;;;;;;;0.20;0.00;;;17.20;99.90;;;;;;25610569;23;20392;-69
2022/11/04 00:35:49;;;;;;;0.20;0.00;;;18.10;99.90;;;;;;25661612;23;20375;-68
2022/11/04 00:45:54;;;;;;;0.20;0.00;;;17.90;99.90;;;;;;25662191;23;20406;-68
2022/11/04 00:55:59;;;;;;;0.20;0.07;;;18.10;99.90;;;;;;25636669;23;20391;-68
2022/11/04 01:06:05;;;;;;;0.20;0.10;;;17.80;99.90;;;;;;25661310;23;20380;-68
2022/11/04 01:16:11;;;;;;;0.20;0.10;;;17.30;99.90;;;;;;25659859;23;20375;-68
2022/11/04 01:26:19;;;;;;;0.20;0.00;;;17.20;99.90;;;;;;25659156;23;20367;-68
2022/11/04 01:36:24;;;;;;;0.20;0.00;;;16.70;99.90;;;;;;25658190;23;20487;-68
2022/11/04 01:46:37;;;;;;;0.20;0.00;;;16.70;99.90;;;;;;25632590;23;20435;-68
2022/11/04 01:56:43;;;;;;;0.20;0.00;;;16.50;99.90;;;;;;25633581;23;20438;-68
2022/11/04 02:06:49;;;;;;;0.20;0.10;;;16.50;99.90;;;;;;25657985;23;20430;-68
2022/11/04 02:17:04;;;;;;;0.20;0.00;;;15.50;99.90;;;;;;25657306;23;20382;-68
2022/11/04 02:27:26;;;;;;;0.20;0.03;;;14.60;99.90;;;;;;25633610;23;20435;-68
2022/11/04 02:37:39;;;;;;;0.20;0.00;;;14.70;99.90;;;;;;25657195;23;20422;-69
2022/11/04 02:47:45;;;;;;;0.20;0.00;;;14.20;99.90;;;;;;25656882;23;20463;-69
2022/11/04 02:57:52;;;;;;;0.20;0.10;;;14.20;99.90;;;;;;25631019;23;20474;-70
2022/11/04 03:08:00;;;;;;;0.20;0.10;;;14.60;99.90;;;;;;25630018;23;20447;-68
2022/11/04 03:18:16;;;;;;;0.20;0.10;;;14.20;99.90;;;;;;25655853;23;20375;-68
2022/11/04 03:28:33;;;;;;;0.20;0.05;;;13.70;99.90;;;;;;25653815;23;20364;-68
2022/11/04 03:38:39;;;;;;;0.20;0.10;;;13.60;99.90;;;;;;25653159;23;20368;-68
2022/11/04 03:48:46;;;;;;;0.20;0.00;;;13.60;99.90;;;;;;25654570;23;20364;-69
2022/11/04 03:59:03;;;;;;;0.20;0.10;;;13.50;99.90;;;;;;25628524;23;20383;-68
2022/11/04 04:09:13;;;;;;;0.20;0.10;;;13.80;99.90;;;;;;25654233;23;20379;-70
2022/11/04 04:19:22;;;;;;;0.20;0.10;;;14.00;99.90;;;;;;25660331;23;20383;-70
2022/11/04 04:29:29;;;;;;;0.20;0.10;;;14.30;99.90;;;;;;25636257;23;20391;-69
2022/11/04 04:50:00;;;;;;;0.20;0.00;;;13.10;99.90;;;;;;25634545;23;20371;-69
2022/11/04 05:00:12;;;;;;;0.20;0.10;;;14.00;99.90;;;;;;25659105;23;20386;-70
2022/11/04 05:10:17;;;;;;;0.20;0.10;;;13.90;99.90;;;;;;25633592;23;20368;-69
2022/11/04 05:20:22;;;;;;;0.20;0.10;;;13.60;99.90;;;;;;25658409;23;20422;-69
2022/11/04 05:30:26;;;;;;;0.20;0.00;;;13.40;99.90;;;;;;25607846;23;20402;-68
2022/11/04 05:40:31;;;;;;;0.20;0.10;;;12.90;99.90;;;;;;25658131;23;20399;-71
2022/11/04 05:50:35;;;;;;;0.20;0.10;;;13.00;99.90;;;;;;25658444;23;20363;-71
2022/11/04 06:00:40;;;;;;;0.20;0.10;;;12.70;99.90;;;;;;25656798;23;20368;-69
2022/11/04 06:10:43;;;;;;;0.20;0.00;;;12.40;99.90;;;;;;25630740;23;20429;-70
2022/11/04 06:20:48;;;;;;;0.20;0.10;;;12.00;99.90;;;;;;25656016;23;21043;-70
2022/11/04 06:30:52;;;;;;;0.20;0.10;;;12.30;99.90;;;;;;25653312;23;20435;-70
2022/11/04 06:40:57;;;;;;;0.20;0.00;;;12.20;99.90;;;;;;25653726;23;20355;-73
2022/11/04 06:51:01;;;;;;;0.20;0.10;;;11.80;99.90;;;;;;25650976;23;20367;-70
2022/11/04 07:01:06;;;;;;;0.20;0.00;;;12.50;99.90;;;;;;25643895;23;20383;-68
2022/11/04 07:11:20;;;;;;;0.20;0.10;;;13.10;99.90;;;;;;25651681;23;20443;-70
2022/11/04 07:21:26;;;;;;;0.20;0.10;;;13.20;99.90;;;;;;25651273;23;20455;-67
2022/11/04 07:31:29;;;;;;;0.20;0.00;;;13.50;99.90;;;;;;25653507;23;20930;-68
2022/11/04 07:41:35;;;;;;;0.20;0.00;;;13.50;99.90;;;;;;25651963;23;20382;-70
2022/11/04 07:51:38;;;;;;;0.20;0.10;;;13.90;99.90;;;;;;25655218;23;20368;-69
2022/11/04 08:01:43;;;;;;;0.20;0.00;;;13.90;99.90;;;;;;25657400;23;20378;-71
2022/11/04 08:11:47;;;;;;;0.20;0.10;;;14.00;99.90;;;;;;25633784;23;20503;-68
2022/11/04 08:21:52;;;;;;;0.20;0.10;;;14.20;99.90;;;;;;25658255;23;20379;-70
2022/11/04 08:31:56;;;;;;;0.20;0.10;;;14.20;99.90;;;;;;25659048;23;20364;-69
2022/11/04 08:42:01;;;;;;;0.20;0.10;;;14.70;99.90;;;;;;25632998;23;20518;-69
2022/11/04 08:52:05;;;;;;;0.20;0.10;;;14.70;99.90;;;;;;25632210;23;20368;-69
2022/11/04 09:02:14;;;;;;;0.20;0.10;;;14.80;99.90;;;;;;25657991;23;20364;-69
2022/11/04 09:12:19;;;;;;;0.20;0.10;;;15.10;99.90;;;;;;25655805;23;20363;-68
2022/11/04 09:22:24;;;;;;;0.20;0.10;;;15.40;99.90;;;;;;25631783;23;20379;-68
2022/11/04 09:32:28;;;;;;;0.20;0.03;;;15.80;99.90;;;;;;25629595;23;20886;-70
2022/11/04 09:42:44;;;;;;;0.20;0.00;;;16.40;99.90;;;;;;25657328;23;20376;-70
2022/11/04 09:52:53;;;;;;;0.20;0.10;;;16.10;99.90;;;;;;25629625;23;20767;-70
2022/11/04 10:03:09;;;;;;;0.20;0.00;;;16.70;99.90;;;;;;25624071;23;20375;-72
2022/11/04 10:13:25;;;;;;;0.20;0.10;;;17.00;99.90;;;;;;25651378;23;20367;-70
2022/11/04 10:23:34;;;;;;;0.20;0.10;;;17.50;99.90;;;;;;25652430;23;20405;-70
2022/11/04 10:33:41;;;;;;;0.20;0.00;;;18.00;99.90;;;;;;25602377;23;20367;-71
2022/11/04 10:43:49;;;;;;;0.20;0.00;;;18.40;99.90;;;;;;25625614;23;20475;-71
2022/11/04 10:53:55;;;;;;;0.20;0.00;;;19.30;99.90;;;;;;25654350;23;20378;-68
2022/11/04 11:04:06;;;;;;;0.20;0.03;;;19.90;99.90;;;;;;25654103;23;20371;-70
2022/11/04 11:14:30;;;;;;;0.20;0.00;;;20.20;99.90;;;;;;25627375;23;20384;-70
2022/11/04 11:24:36;;;;;;;0.20;0.10;;;20.50;99.90;;;;;;25656288;23;20379;-69
2022/11/04 11:34:44;;;;;;;0.20;0.00;;;20.10;99.90;;;;;;25610173;23;20493;-70
2022/11/04 11:44:53;;;;;;;0.20;0.00;;;20.30;99.90;;;;;;25660128;23;20939;-71
2022/11/04 11:55:06;;;;;;;0.20;0.00;;;20.60;99.90;;;;;;25631705;23;20383;-70
2022/11/04 12:05:12;;;;;;;0.20;0.00;;;19.90;99.90;;;;;;25632052;23;20371;-69
2022/11/04 12:15:55;;;;;;;0.20;0.00;;;20.80;99.90;;;;;;25636331;23;20456;-69
2022/11/04 12:26:13;;;;;;;0.20;0.00;;;21.00;99.90;;;;;;25632705;23;20438;-68
2022/11/04 12:36:39;;;;;;;0.20;0.00;;;21.50;99.90;;;;;;25605795;23;20386;-70
2022/11/04 12:46:57;;;;;;;0.20;0.00;;;21.90;99.90;;;;;;25659394;23;20372;-69
2022/11/04 12:57:13;;;;;;;0.20;0.00;;;21.50;99.90;;;;;;25658582;23;20928;-70
2022/11/04 13:07:24;;;;;;;0.20;0.00;;;21.40;99.90;;;;;;25653499;23;20414;-69
2022/11/04 13:17:33;;;;;;;0.20;0.10;;;21.40;99.90;;;;;;25601723;23;20415;-69
2022/11/04 13:27:43;;;;;;;0.20;0.00;;;22.00;99.90;;;;;;25654657;23;20387;-71
2022/11/04 13:37:55;;;;;;;0.20;0.00;;;22.80;99.90;;;;;;25648759;23;20372;-69
2022/11/04 13:48:00;;;;;;;0.20;0.00;;;22.70;99.90;;;;;;25623753;23;20475;-69
2022/11/04 13:58:06;;;;;;;0.20;0.00;;;23.80;99.90;;;;;;25631923;23;20395;-69
2022/11/04 14:08:13;;;;;;;0.20;0.00;;;24.90;99.90;;;;;;25656303;23;20443;-70
2022/11/04 14:18:29;;;;;;;0.20;0.10;;;25.60;99.90;;;;;;25527093;23;20385;-68
2022/11/04 14:28:35;;;;;;;0.20;0.00;;;24.70;99.90;;;;;;25528673;23;20371;-71
2022/11/04 14:38:38;;;;;;;0.20;0.00;;;24.30;99.90;;;;;;25532323;23;20821;-69
2022/11/04 14:48:51;;;;;;;0.20;0.00;;;25.10;99.90;;;;;;25527721;23;20426;-71
2022/11/04 14:58:59;;;;;;;0.20;0.00;;;24.30;99.90;;;;;;25526604;23;20373;-69
2022/11/04 15:09:04;;;;;;;0.20;0.00;;;24.20;99.90;;;;;;25498711;23;20373;-67
2022/11/04 15:19:09;;;;;;;0.20;0.00;;;22.00;99.90;;;;;;25646151;23;20376;-70
2022/11/04 15:29:16;;;;;;;0.20;0.00;;;21.60;99.90;;;;;;25648149;23;20375;-72
2022/11/04 15:39:22;;;;;;;0.20;0.00;;;21.30;99.90;;;;;;25647220;23;20387;-68
2022/11/04 15:49:28;;;;;;;0.20;0.05;;;21.10;99.90;;;;;;25649042;23;20441;-71
2022/11/04 15:59:35;;;;;;;0.20;0.00;;;20.10;99.90;;;;;;25594611;23;20383;-67
2022/11/04 16:09:50;;;;;;;0.20;0.00;;;19.80;99.90;;;;;;25619424;23;20368;-68
2022/11/04 16:19:56;;;;;;;0.20;0.00;;;19.40;99.90;;;;;;25630997;23;20399;-67
2022/11/04 16:30:10;;;;;;;0.20;0.00;;;19.20;99.90;;;;;;25658723;23;20360;-70
2022/11/04 16:40:14;;;;;;;0.20;0.00;;;18.90;99.90;;;;;;25652838;23;20379;-69
2022/11/04 16:50:20;;;;;;;0.20;0.08;;;18.60;99.90;;;;;;25627644;23;20388;-69
2022/11/04 17:00:26;;;;;;;0.20;0.10;;;18.40;99.90;;;;;;25628227;23;20384;-69
2022/11/04 17:10:32;;;;;;;0.20;0.10;;;18.10;99.90;;;;;;25651453;23;20368;-70
2022/11/04 17:20:35;;;;;;;0.20;0.10;;;18.10;99.90;;;;;;25622258;23;20383;-70
2022/11/04 17:30:41;;;;;;;0.20;0.10;;;17.90;99.90;;;;;;25624034;23;20368;-68
2022/11/04 17:51:12;;;;;;;0.20;0.10;;;17.80;99.90;;;;;;25514435;23;20371;-70
2022/11/04 18:01:19;;;;;;;0.20;0.10;;;17.50;99.90;;;;;;25622813;23;20386;-70
2022/11/04 18:21:47;;;;;;;0.20;0.00;;;17.40;99.90;;;;;;25647909;23;20375;-69
2022/11/04 18:31:53;;;;;;;0.20;0.10;;;17.20;99.90;;;;;;25596632;23;20921;-69
2022/11/04 18:41:56;;;;;;;0.20;0.10;;;17.20;99.90;;;;;;25649433;23;20391;-70
2022/11/04 18:52:01;;;;;;;0.20;0.00;;;17.10;99.90;;;;;;25650451;23;20417;-68
2022/11/04 19:02:05;;;;;;;0.20;0.10;;;17.10;99.90;;;;;;25649290;23;20382;-68
2022/11/04 19:22:32;;;;;;;0.20;0.10;;;17.00;99.90;;;;;;25649879;23;20379;-69
2022/11/04 19:32:37;;;;;;;0.20;0.10;;;16.90;99.90;;;;;;25648828;23;20518;-68
2022/11/04 19:53:06;;;;;;;0.20;0.10;;;16.70;99.90;;;;;;25621680;23;20359;-69
2022/11/04 20:03:09;;;;;;;0.20;0.10;;;16.60;99.90;;;;;;25653497;23;20402;-68
2022/11/04 20:23:39;;;;;;;0.20;0.10;;;16.60;99.90;;;;;;25653943;23;20466;-69
2022/11/04 20:33:44;;;;;;;0.20;0.10;;;16.50;99.90;;;;;;25626360;23;20372;-68
2022/11/04 20:43:49;;;;;;;0.20;0.10;;;16.50;99.90;;;;;;25655798;23;20368;-68
2022/11/04 20:53:58;;;;;;;0.20;0.10;;;16.20;99.90;;;;;;25626174;23;20367;-68
2022/11/04 21:04:05;;;;;;;0.20;0.10;;;15.90;99.90;;;;;;25620715;23;20379;-68
2022/11/04 21:14:13;;;;;;;0.20;0.10;;;16.10;99.90;;;;;;25653157;23;20382;-70
2022/11/04 21:24:17;;;;;;;0.20;0.10;;;15.50;99.90;;;;;;25655064;23;20439;-69
2022/11/04 21:34:22;;;;;;;0.20;0.10;;;15.20;99.90;;;;;;25626511;23;20419;-68
2022/11/04 21:44:26;;;;;;;0.20;0.10;;;15.00;99.90;;;;;;25655224;23;20368;-70
2022/11/04 21:54:31;;;;;;;0.20;0.10;;;14.80;99.90;;;;;;25629702;23;20394;-68
2022/11/04 22:04:35;;;;;;;0.20;0.00;;;14.60;99.90;;;;;;25656691;23;20379;-69
2022/11/04 22:14:40;;;;;;;0.20;0.10;;;14.30;99.90;;;;;;25647237;23;20368;-68
2022/11/04 22:24:43;;;;;;;0.20;0.10;;;14.00;99.90;;;;;;25651158;23;20423;-68
2022/11/04 22:35:07;;;;;;;0.20;0.10;;;13.80;99.90;;;;;;25652084;23;20363;-68
2022/11/04 22:45:11;;;;;;;0.20;0.10;;;13.80;99.90;;;;;;25653583;23;20379;-68
2022/11/04 22:55:20;;;;;;;0.20;0.10;;;13.70;99.90;;;;;;25652957;23;20371;-70
2022/11/04 23:05:27;;;;;;;0.20;0.10;;;13.60;99.90;;;;;;25656844;23;20387;-68
2022/11/04 23:25:53;;;;;;;0.20;0.10;;;13.60;99.90;;;;;;25630699;23;20379;-69
